createdAt,value
2018-09-16T00:00:47.590Z,0.00
2018-09-16T00:01:53.812Z,0.00
2018-09-16T00:02:59.492Z,0.00
2018-09-16T00:04:06.300Z,0.00
2018-09-16T00:05:12.408Z,0.00
2018-09-16T00:06:18.128Z,0.00
2018-09-16T00:07:24.842Z,0.00
2018-09-16T00:08:31.036Z,0.00
2018-09-16T00:09:37.290Z,0.00
2018-09-16T00:10:43.431Z,0.00
2018-09-16T00:11:49.151Z,0.00
2018-09-16T00:12:55.866Z,0.00
2018-09-16T00:14:02.053Z,0.00
2018-09-16T00:15:08.252Z,0.00
2018-09-16T00:16:14.455Z,0.00
2018-09-16T00:17:20.677Z,0.00
2018-09-16T00:18:26.880Z,0.00
2018-09-16T00:19:33.071Z,0.00
2018-09-16T00:20:39.302Z,0.00
2018-09-16T00:21:45.465Z,0.00
2018-09-16T00:22:51.298Z,0.00
2018-09-16T00:23:57.875Z,0.00
2018-09-16T00:25:04.071Z,0.00
2018-09-16T00:26:10.283Z,0.00
2018-09-16T00:27:15.977Z,0.00
2018-09-16T00:28:22.687Z,0.00
2018-09-16T00:29:28.363Z,0.00
2018-09-16T00:30:35.057Z,0.00
2018-09-16T00:31:41.279Z,0.00
2018-09-16T00:32:47.459Z,0.00
2018-09-16T00:33:53.640Z,0.00
2018-09-16T00:35:00.826Z,0.00
2018-09-16T00:36:05.537Z,0.00
2018-09-16T00:37:11.729Z,0.00
2018-09-16T00:38:18.409Z,0.00
2018-09-16T00:39:24.611Z,0.00
2018-09-16T00:40:30.303Z,0.00
2018-09-16T00:41:36.996Z,0.00
2018-09-16T00:42:43.290Z,0.00
2018-09-16T00:43:49.375Z,0.00
2018-09-16T00:44:55.571Z,0.00
2018-09-16T00:46:01.751Z,0.00
2018-09-16T00:47:07.948Z,0.00
2018-09-16T00:48:14.155Z,0.00
2018-09-16T00:49:20.331Z,0.00
2018-09-16T00:50:26.528Z,0.00
2018-09-16T00:51:32.708Z,0.00
2018-09-16T00:52:38.421Z,0.00
2018-09-16T00:53:44.604Z,0.00
2018-09-16T00:54:51.290Z,0.00
2018-09-16T00:55:57.489Z,0.00
2018-09-16T00:57:03.662Z,0.00
2018-09-16T00:58:09.359Z,0.00
2018-09-16T00:59:15.538Z,0.00
2018-09-16T01:00:22.224Z,0.00
2018-09-16T01:01:28.429Z,0.00
2018-09-16T01:02:34.601Z,0.00
2018-09-16T01:03:40.780Z,0.00
2018-09-16T01:04:46.477Z,0.00
2018-09-16T01:05:52.660Z,0.00
2018-09-16T01:06:59.350Z,0.00
2018-09-16T01:08:05.044Z,0.00
2018-09-16T01:09:11.219Z,0.00
2018-09-16T01:10:17.399Z,0.00
2018-09-16T01:11:23.575Z,0.00
2018-09-16T01:12:29.759Z,0.00
2018-09-16T01:13:36.461Z,0.00
2018-09-16T01:14:42.648Z,0.00
2018-09-16T01:15:48.310Z,0.00
2018-09-16T01:16:54.986Z,0.00
2018-09-16T01:18:00.678Z,0.00
2018-09-16T01:19:07.361Z,0.00
2018-09-16T01:20:13.535Z,0.00
2018-09-16T01:21:19.724Z,0.00
2018-09-16T01:22:25.905Z,0.00
2018-09-16T01:23:31.587Z,0.00
2018-09-16T01:24:37.768Z,0.00
2018-09-16T01:25:44.433Z,0.00
2018-09-16T01:26:50.620Z,0.00
2018-09-16T01:27:56.297Z,0.00
2018-09-16T01:29:02.987Z,0.00
2018-09-16T01:30:08.652Z,0.00
2018-09-16T01:31:14.841Z,0.00
2018-09-16T01:32:21.503Z,0.00
2018-09-16T01:33:27.697Z,0.00
2018-09-16T01:34:33.370Z,0.00
2018-09-16T01:35:39.547Z,0.00
2018-09-16T01:36:45.727Z,0.00
2018-09-16T01:37:51.904Z,0.00
2018-09-16T01:38:58.581Z,0.00
2018-09-16T01:40:04.759Z,0.00
2018-09-16T01:41:10.926Z,0.00
2018-09-16T01:42:17.100Z,0.00
2018-09-16T01:43:26.227Z,0.00
2018-09-16T01:44:29.463Z,0.00
2018-09-16T01:45:35.139Z,0.00
2018-09-16T01:46:41.813Z,0.00
2018-09-16T01:47:47.973Z,0.00
2018-09-16T01:48:53.680Z,0.00
2018-09-16T01:50:00.325Z,0.00
2018-09-16T01:51:06.011Z,0.00
2018-09-16T01:52:12.671Z,0.00
2018-09-16T01:53:18.861Z,0.00
2018-09-16T01:54:25.048Z,0.00
2018-09-16T01:55:31.192Z,0.00
2018-09-16T01:56:36.873Z,0.00
2018-09-16T01:57:43.543Z,0.00
2018-09-16T01:58:49.228Z,0.00
2018-09-16T01:59:55.904Z,0.00
2018-09-16T02:01:02.067Z,0.00
2018-09-16T02:02:08.275Z,0.00
2018-09-16T02:03:13.916Z,0.00
2018-09-16T02:04:20.112Z,0.00
2018-09-16T02:05:26.261Z,0.00
2018-09-16T02:06:32.433Z,0.00
2018-09-16T02:07:38.587Z,0.00
2018-09-16T02:08:44.765Z,0.00
2018-09-16T02:09:51.436Z,0.00
2018-09-16T02:10:57.587Z,0.00
2018-09-16T02:12:03.267Z,0.00
2018-09-16T02:13:09.936Z,0.00
2018-09-16T02:14:15.613Z,0.00
2018-09-16T02:15:21.791Z,0.00
2018-09-16T02:16:28.434Z,0.00
2018-09-16T02:17:34.621Z,0.00
2018-09-16T02:18:40.797Z,0.00
2018-09-16T02:19:46.964Z,0.00
2018-09-16T02:20:52.635Z,0.00
2018-09-16T02:21:58.800Z,0.00
2018-09-16T02:23:04.975Z,0.00
2018-09-16T02:24:11.641Z,0.00
2018-09-16T02:25:17.313Z,0.00
2018-09-16T02:26:23.462Z,0.00
2018-09-16T02:27:29.639Z,0.00
2018-09-16T02:28:36.360Z,0.00
2018-09-16T02:29:41.984Z,0.00
2018-09-16T02:30:48.143Z,0.00
2018-09-16T02:31:54.293Z,0.00
2018-09-16T02:33:00.971Z,0.00
2018-09-16T02:34:07.092Z,0.00
2018-09-16T02:35:13.303Z,0.00
2018-09-16T02:36:18.956Z,0.00
2018-09-16T02:37:25.319Z,0.00
2018-09-16T02:38:32.787Z,0.00
2018-09-16T02:39:37.949Z,0.00
2018-09-16T02:40:43.619Z,0.00
2018-09-16T02:41:50.279Z,0.00
2018-09-16T02:42:55.941Z,0.00
2018-09-16T02:44:02.623Z,0.00
2018-09-16T02:45:08.274Z,0.00
2018-09-16T02:46:14.425Z,0.00
2018-09-16T02:47:21.081Z,0.00
2018-09-16T02:48:27.239Z,0.00
2018-09-16T02:49:33.412Z,0.00
2018-09-16T02:50:39.101Z,0.00
2018-09-16T02:51:45.236Z,0.00
2018-09-16T02:52:51.896Z,0.00
2018-09-16T02:53:58.051Z,0.00
2018-09-16T02:55:03.727Z,0.00
2018-09-16T02:56:09.880Z,0.00
2018-09-16T02:57:16.519Z,0.00
2018-09-16T02:58:22.292Z,0.00
2018-09-16T02:59:28.834Z,0.00
2018-09-16T03:00:35.070Z,0.00
2018-09-16T03:01:42.157Z,0.00
2018-09-16T03:02:47.325Z,0.00
2018-09-16T03:03:53.506Z,0.00
2018-09-16T03:04:59.667Z,0.00
2018-09-16T03:06:05.825Z,0.00
2018-09-16T03:07:11.979Z,0.00
2018-09-16T03:08:18.135Z,0.00
2018-09-16T03:09:24.325Z,0.00
2018-09-16T03:10:30.471Z,0.00
2018-09-16T03:11:36.692Z,0.00
2018-09-16T03:12:42.760Z,0.00
2018-09-16T03:13:48.943Z,0.00
2018-09-16T03:14:55.100Z,0.00
2018-09-16T03:16:01.260Z,0.00
2018-09-16T03:17:06.950Z,0.00
2018-09-16T03:18:13.080Z,0.00
2018-09-16T03:19:19.734Z,0.00
2018-09-16T03:20:25.892Z,0.00
2018-09-16T03:21:32.033Z,0.00
2018-09-16T03:22:38.280Z,0.00
2018-09-16T03:23:43.856Z,0.00
2018-09-16T03:24:50.014Z,0.00
2018-09-16T03:25:56.665Z,0.00
2018-09-16T03:27:02.814Z,0.00
2018-09-16T03:28:08.997Z,0.00
2018-09-16T03:29:15.130Z,0.00
2018-09-16T03:30:21.273Z,0.00
2018-09-16T03:31:26.951Z,0.00
2018-09-16T03:32:33.584Z,0.00
2018-09-16T03:33:39.266Z,0.00
2018-09-16T03:34:45.908Z,0.00
2018-09-16T03:35:52.055Z,0.00
2018-09-16T03:36:58.283Z,0.00
2018-09-16T03:38:04.357Z,0.00
2018-09-16T03:39:10.512Z,0.00
2018-09-16T03:40:16.671Z,0.00
2018-09-16T03:41:22.803Z,0.00
2018-09-16T03:42:29.961Z,0.00
2018-09-16T03:43:35.148Z,0.00
2018-09-16T03:44:41.268Z,0.00
2018-09-16T03:45:46.921Z,0.00
2018-09-16T03:46:53.651Z,0.00
2018-09-16T03:47:59.728Z,0.00
2018-09-16T03:49:05.870Z,0.00
2018-09-16T03:50:12.023Z,0.00
2018-09-16T03:51:18.284Z,0.00
2018-09-16T03:52:23.824Z,0.00
2018-09-16T03:53:30.479Z,0.00
2018-09-16T03:54:36.620Z,0.00
2018-09-16T03:55:42.771Z,0.00
2018-09-16T03:56:48.439Z,0.00
2018-09-16T03:57:55.082Z,0.00
2018-09-16T03:59:01.224Z,0.00
2018-09-16T04:00:06.885Z,0.00
2018-09-16T04:01:13.504Z,0.00
2018-09-16T04:02:19.670Z,0.00
2018-09-16T04:03:25.315Z,0.00
2018-09-16T04:04:31.941Z,0.00
2018-09-16T04:05:38.098Z,0.00
2018-09-16T04:06:44.335Z,0.00
2018-09-16T04:07:50.393Z,0.00
2018-09-16T04:08:56.531Z,0.00
2018-09-16T04:10:02.688Z,0.00
2018-09-16T04:11:08.824Z,0.00
2018-09-16T04:12:14.974Z,0.00
2018-09-16T04:13:21.118Z,0.00
2018-09-16T04:14:27.257Z,0.00
2018-09-16T04:15:33.410Z,0.00
2018-09-16T04:16:39.051Z,0.00
2018-09-16T04:17:45.699Z,0.00
2018-09-16T04:18:51.331Z,0.00
2018-09-16T04:19:57.966Z,0.00
2018-09-16T04:21:04.148Z,0.00
2018-09-16T04:22:10.284Z,0.00
2018-09-16T04:23:16.413Z,0.00
2018-09-16T04:24:22.546Z,0.00
2018-09-16T04:25:28.700Z,0.00
2018-09-16T04:26:34.845Z,0.00
2018-09-16T04:27:40.998Z,0.00
2018-09-16T04:28:46.637Z,0.00
2018-09-16T04:29:52.780Z,0.00
2018-09-16T04:30:59.422Z,0.00
2018-09-16T04:32:05.073Z,0.00
2018-09-16T04:33:11.705Z,0.00
2018-09-16T04:34:17.857Z,0.00
2018-09-16T04:35:23.997Z,0.00
2018-09-16T04:36:29.636Z,0.00
2018-09-16T04:37:36.325Z,0.00
2018-09-16T04:38:42.414Z,0.00
2018-09-16T04:39:48.070Z,0.00
2018-09-16T04:40:54.219Z,0.00
2018-09-16T04:42:00.855Z,0.00
2018-09-16T04:43:06.504Z,0.00
2018-09-16T04:44:12.640Z,0.00
2018-09-16T04:45:18.786Z,0.00
2018-09-16T04:46:25.433Z,0.00
2018-09-16T04:47:31.577Z,0.00
2018-09-16T04:48:37.206Z,0.00
2018-09-16T04:49:43.396Z,0.00
2018-09-16T04:50:49.985Z,0.00
2018-09-16T04:51:56.118Z,0.00
2018-09-16T04:53:02.302Z,0.00
2018-09-16T04:54:07.900Z,0.00
2018-09-16T04:55:14.544Z,0.00
2018-09-16T04:56:20.665Z,0.00
2018-09-16T04:57:26.325Z,5.63
2018-09-16T04:58:32.964Z,5.63
2018-09-16T04:59:39.097Z,5.63
2018-09-16T05:00:45.226Z,5.63
2018-09-16T05:01:50.886Z,5.63
2018-09-16T05:02:57.524Z,5.63
2018-09-16T05:04:03.663Z,5.63
2018-09-16T05:05:09.296Z,11.25
2018-09-16T05:06:15.934Z,11.25
2018-09-16T05:07:21.594Z,11.25
2018-09-16T05:08:28.288Z,11.25
2018-09-16T05:09:34.352Z,11.25
2018-09-16T05:10:40.501Z,11.25
2018-09-16T05:11:46.633Z,16.88
2018-09-16T05:12:52.766Z,16.88
2018-09-16T05:13:58.512Z,16.88
2018-09-16T05:15:05.040Z,16.88
2018-09-16T05:16:11.199Z,22.50
2018-09-16T05:17:17.336Z,22.50
2018-09-16T05:18:22.976Z,22.50
2018-09-16T05:19:29.598Z,28.13
2018-09-16T05:20:35.246Z,28.13
2018-09-16T05:21:41.882Z,28.13
2018-09-16T05:22:48.015Z,28.13
2018-09-16T05:23:54.285Z,33.75
2018-09-16T05:24:59.811Z,33.75
2018-09-16T05:26:05.943Z,33.75
2018-09-16T05:27:12.569Z,33.75
2018-09-16T05:28:19.712Z,39.38
2018-09-16T05:29:24.872Z,39.38
2018-09-16T05:30:31.014Z,39.38
2018-09-16T05:31:37.151Z,39.38
2018-09-16T05:32:43.326Z,45.00
2018-09-16T05:33:49.438Z,45.00
2018-09-16T05:34:55.567Z,45.00
2018-09-16T05:36:01.216Z,50.63
2018-09-16T05:37:07.849Z,50.63
2018-09-16T05:38:13.497Z,50.63
2018-09-16T05:39:19.656Z,56.25
2018-09-16T05:40:26.288Z,56.25
2018-09-16T05:41:31.919Z,56.25
2018-09-16T05:42:38.576Z,61.88
2018-09-16T05:43:44.729Z,61.88
2018-09-16T05:44:50.865Z,61.88
2018-09-16T05:45:57.011Z,61.88
2018-09-16T05:47:03.155Z,67.50
2018-09-16T05:48:08.800Z,67.50
2018-09-16T05:49:15.455Z,67.50
2018-09-16T05:50:21.600Z,67.50
2018-09-16T05:51:27.753Z,67.50
2018-09-16T05:52:33.393Z,73.13
2018-09-16T05:53:40.046Z,73.13
2018-09-16T05:54:46.207Z,73.13
2018-09-16T05:55:52.344Z,73.13
2018-09-16T05:56:58.012Z,78.75
2018-09-16T05:58:04.650Z,78.75
2018-09-16T05:59:10.350Z,78.75
2018-09-16T06:00:16.969Z,78.75
2018-09-16T06:01:22.616Z,78.75
2018-09-16T06:02:29.275Z,78.75
2018-09-16T06:03:35.429Z,84.38
2018-09-16T06:04:41.948Z,84.38
2018-09-16T06:05:47.741Z,84.38
2018-09-16T06:06:53.886Z,84.38
2018-09-16T06:07:59.566Z,84.38
2018-09-16T06:09:05.721Z,90.00
2018-09-16T06:10:11.885Z,90.00
2018-09-16T06:11:18.539Z,90.00
2018-09-16T06:12:24.715Z,90.00
2018-09-16T06:13:30.870Z,90.00
2018-09-16T06:14:37.032Z,90.00
2018-09-16T06:15:42.710Z,90.00
2018-09-16T06:16:48.859Z,90.00
2018-09-16T06:17:55.520Z,90.00
2018-09-16T06:19:01.187Z,90.00
2018-09-16T06:20:07.871Z,95.63
2018-09-16T06:21:14.028Z,95.63
2018-09-16T06:22:20.290Z,95.63
2018-09-16T06:23:25.864Z,95.63
2018-09-16T06:24:32.514Z,95.63
2018-09-16T06:25:38.688Z,95.63
2018-09-16T06:26:44.371Z,95.63
2018-09-16T06:27:51.038Z,95.63
2018-09-16T06:28:56.708Z,101.25
2018-09-16T06:30:03.397Z,101.25
2018-09-16T06:31:09.563Z,101.25
2018-09-16T06:32:15.237Z,101.25
2018-09-16T06:33:21.910Z,101.25
2018-09-16T06:34:28.093Z,101.25
2018-09-16T06:35:34.280Z,101.25
2018-09-16T06:36:39.951Z,101.25
2018-09-16T06:37:46.637Z,101.25
2018-09-16T06:38:52.808Z,101.25
2018-09-16T06:39:59.032Z,106.88
2018-09-16T06:41:04.690Z,106.88
2018-09-16T06:42:11.363Z,106.88
2018-09-16T06:43:17.566Z,106.88
2018-09-16T06:44:23.239Z,106.88
2018-09-16T06:45:29.429Z,106.88
2018-09-16T06:46:35.623Z,106.88
2018-09-16T06:47:41.807Z,106.88
2018-09-16T06:48:48.496Z,112.50
2018-09-16T06:49:54.693Z,112.50
2018-09-16T06:51:00.972Z,112.50
2018-09-16T06:52:07.089Z,112.50
2018-09-16T06:53:13.279Z,112.50
2018-09-16T06:54:19.488Z,112.50
2018-09-16T06:55:25.684Z,112.50
2018-09-16T06:56:31.916Z,112.50
2018-09-16T06:57:38.093Z,112.50
2018-09-16T06:58:44.302Z,112.50
2018-09-16T06:59:50.512Z,112.50
2018-09-16T07:00:57.782Z,112.50
2018-09-16T07:02:02.933Z,118.13
2018-09-16T07:03:09.136Z,118.13
2018-09-16T07:04:15.358Z,118.13
2018-09-16T07:05:21.567Z,118.13
2018-09-16T07:06:27.796Z,118.13
2018-09-16T07:07:34.024Z,118.13
2018-09-16T07:08:39.726Z,118.13
2018-09-16T07:09:45.953Z,118.13
2018-09-16T07:10:52.676Z,118.13
2018-09-16T07:11:59.404Z,118.13
2018-09-16T07:13:05.107Z,118.13
2018-09-16T07:14:11.360Z,118.13
2018-09-16T07:15:17.589Z,118.13
2018-09-16T07:16:23.318Z,123.75
2018-09-16T07:17:30.050Z,123.75
2018-09-16T07:18:36.334Z,123.75
2018-09-16T07:19:42.527Z,123.75
2018-09-16T07:20:48.767Z,123.75
2018-09-16T07:21:54.520Z,123.75
2018-09-16T07:23:00.760Z,123.75
2018-09-16T07:24:07.493Z,123.75
2018-09-16T07:25:14.741Z,123.75
2018-09-16T07:26:19.992Z,123.75
2018-09-16T07:27:26.336Z,123.75
2018-09-16T07:28:32.016Z,123.75
2018-09-16T07:29:38.769Z,123.75
2018-09-16T07:30:45.025Z,129.38
2018-09-16T07:31:51.285Z,129.38
2018-09-16T07:32:57.054Z,129.38
2018-09-16T07:34:03.831Z,129.38
2018-09-16T07:35:10.053Z,129.38
2018-09-16T07:36:16.338Z,129.38
2018-09-16T07:37:22.610Z,129.38
2018-09-16T07:38:28.856Z,129.38
2018-09-16T07:39:35.144Z,129.38
2018-09-16T07:40:41.420Z,129.38
2018-09-16T07:41:47.702Z,129.38
2018-09-16T07:42:53.971Z,129.38
2018-09-16T07:44:00.281Z,129.38
2018-09-16T07:45:06.531Z,129.38
2018-09-16T07:46:12.299Z,129.38
2018-09-16T07:47:19.156Z,129.38
2018-09-16T07:48:24.866Z,129.38
2018-09-16T07:49:31.655Z,129.38
2018-09-16T07:50:37.443Z,129.38
2018-09-16T07:51:44.367Z,135.00
2018-09-16T07:52:50.085Z,135.00
2018-09-16T07:53:56.317Z,129.38
2018-09-16T07:55:03.114Z,129.38
2018-09-16T07:56:08.917Z,129.38
2018-09-16T07:57:15.701Z,135.00
2018-09-16T07:58:22.024Z,135.00
2018-09-16T07:59:28.318Z,135.00
2018-09-16T08:00:34.647Z,135.00
2018-09-16T08:01:40.945Z,135.00
2018-09-16T08:02:46.758Z,135.00
2018-09-16T08:03:53.570Z,135.00
2018-09-16T08:04:59.889Z,140.63
2018-09-16T08:06:05.738Z,140.63
2018-09-16T08:07:12.531Z,140.63
2018-09-16T08:08:18.865Z,140.63
2018-09-16T08:09:25.196Z,140.63
2018-09-16T08:10:31.032Z,140.63
2018-09-16T08:11:37.362Z,140.63
2018-09-16T08:12:44.276Z,140.63
2018-09-16T08:13:50.617Z,140.63
2018-09-16T08:14:56.891Z,140.63
2018-09-16T08:16:02.747Z,140.63
2018-09-16T08:17:09.100Z,140.63
2018-09-16T08:18:15.466Z,140.63
2018-09-16T08:19:22.306Z,140.63
2018-09-16T08:20:28.658Z,140.63
2018-09-16T08:21:34.524Z,146.25
2018-09-16T08:22:40.900Z,146.25
2018-09-16T08:23:47.269Z,146.25
2018-09-16T08:24:54.133Z,146.25
2018-09-16T08:26:00.012Z,146.25
2018-09-16T08:27:06.878Z,146.25
2018-09-16T08:28:12.817Z,146.25
2018-09-16T08:29:19.291Z,146.25
2018-09-16T08:30:25.995Z,146.25
2018-09-16T08:31:32.381Z,151.88
2018-09-16T08:32:38.273Z,146.25
2018-09-16T08:33:44.656Z,146.25
2018-09-16T08:34:51.577Z,146.25
2018-09-16T08:35:57.916Z,151.88
2018-09-16T08:37:04.302Z,151.88
2018-09-16T08:38:10.700Z,151.88
2018-09-16T08:39:16.619Z,151.88
2018-09-16T08:40:23.495Z,157.50
2018-09-16T08:41:29.880Z,157.50
2018-09-16T08:42:35.781Z,163.13
2018-09-16T08:43:42.693Z,163.13
2018-09-16T08:44:48.599Z,168.75
2018-09-16T08:45:55.489Z,180.00
2018-09-16T08:47:01.390Z,191.25
2018-09-16T08:48:08.296Z,191.25
2018-09-16T08:49:14.307Z,202.50
2018-09-16T08:50:20.630Z,202.50
2018-09-16T08:51:27.033Z,196.88
2018-09-16T08:52:33.944Z,196.88
2018-09-16T08:53:39.864Z,196.88
2018-09-16T08:54:46.769Z,196.88
2018-09-16T08:55:53.187Z,196.88
2018-09-16T08:56:59.132Z,191.25
2018-09-16T08:58:06.393Z,196.88
2018-09-16T08:59:11.967Z,196.88
2018-09-16T09:00:18.391Z,196.88
2018-09-16T09:01:25.320Z,196.88
2018-09-16T09:02:31.754Z,202.50
2018-09-16T09:03:38.280Z,196.88
2018-09-16T09:04:44.148Z,191.25
2018-09-16T09:05:51.080Z,191.25
2018-09-16T09:06:57.050Z,185.63
2018-09-16T09:08:03.481Z,180.00
2018-09-16T09:09:09.932Z,180.00
2018-09-16T09:10:16.378Z,174.38
2018-09-16T09:11:22.828Z,174.38
2018-09-16T09:12:29.786Z,174.38
2018-09-16T09:13:35.741Z,174.38
2018-09-16T09:14:42.198Z,174.38
2018-09-16T09:15:48.675Z,174.38
2018-09-16T09:16:55.619Z,180.00
2018-09-16T09:18:02.079Z,180.00
2018-09-16T09:19:08.028Z,180.00
2018-09-16T09:20:14.514Z,185.63
2018-09-16T09:21:21.463Z,185.63
2018-09-16T09:22:27.933Z,191.25
2018-09-16T09:23:34.432Z,191.25
2018-09-16T09:24:40.393Z,196.88
2018-09-16T09:25:47.348Z,196.88
2018-09-16T09:26:53.820Z,196.88
2018-09-16T09:27:59.836Z,202.50
2018-09-16T09:29:06.370Z,202.50
2018-09-16T09:30:13.269Z,202.50
2018-09-16T09:31:19.740Z,202.50
2018-09-16T09:32:26.302Z,202.50
2018-09-16T09:33:33.213Z,202.50
2018-09-16T09:34:39.204Z,202.50
2018-09-16T09:35:45.232Z,202.50
2018-09-16T09:36:51.696Z,208.13
2018-09-16T09:37:58.279Z,208.13
2018-09-16T09:39:05.177Z,208.13
2018-09-16T09:40:11.178Z,208.13
2018-09-16T09:41:18.545Z,208.13
2018-09-16T09:42:24.294Z,208.13
2018-09-16T09:43:30.713Z,213.75
2018-09-16T09:44:37.187Z,213.75
2018-09-16T09:45:44.200Z,213.75
2018-09-16T09:46:50.207Z,213.75
2018-09-16T09:47:57.214Z,213.75
2018-09-16T09:49:03.242Z,213.75
2018-09-16T09:50:09.766Z,213.75
2018-09-16T09:51:16.283Z,213.75
2018-09-16T09:52:22.801Z,219.38
2018-09-16T09:53:29.863Z,219.38
2018-09-16T09:54:36.343Z,225.00
2018-09-16T09:55:42.881Z,225.00
2018-09-16T09:56:48.913Z,219.38
2018-09-16T09:57:55.442Z,219.38
2018-09-16T09:59:02.563Z,219.38
2018-09-16T10:00:08.519Z,219.38
2018-09-16T10:01:15.045Z,219.38
2018-09-16T10:02:22.082Z,219.38
2018-09-16T10:03:28.641Z,219.38
2018-09-16T10:04:35.175Z,219.38
2018-09-16T10:05:41.236Z,219.38
2018-09-16T10:06:47.786Z,219.38
2018-09-16T10:07:54.825Z,213.75
2018-09-16T10:09:00.892Z,213.75
2018-09-16T10:10:07.956Z,219.38
2018-09-16T10:11:14.012Z,219.38
2018-09-16T10:12:20.572Z,219.38
2018-09-16T10:13:27.148Z,219.38
2018-09-16T10:14:34.394Z,219.38
2018-09-16T10:15:40.264Z,219.38
2018-09-16T10:16:47.323Z,219.38
2018-09-16T10:17:53.883Z,225.00
2018-09-16T10:18:59.962Z,225.00
2018-09-16T10:20:07.031Z,230.63
2018-09-16T10:21:13.594Z,230.63
2018-09-16T10:22:19.679Z,230.63
2018-09-16T10:23:26.239Z,225.00
2018-09-16T10:24:32.818Z,225.00
2018-09-16T10:25:39.737Z,225.00
2018-09-16T10:26:45.978Z,225.00
2018-09-16T10:27:52.547Z,230.63
2018-09-16T10:28:59.140Z,225.00
2018-09-16T10:30:05.727Z,230.63
2018-09-16T10:31:12.306Z,230.63
2018-09-16T10:32:18.889Z,230.63
2018-09-16T10:33:26.479Z,225.00
2018-09-16T10:34:32.053Z,225.00
2018-09-16T10:35:38.650Z,225.00
2018-09-16T10:36:45.244Z,225.00
2018-09-16T10:37:51.820Z,225.00
2018-09-16T10:38:58.498Z,225.00
2018-09-16T10:40:05.017Z,225.00
2018-09-16T10:41:11.601Z,230.63
2018-09-16T10:42:18.696Z,230.63
2018-09-16T10:43:24.805Z,230.63
2018-09-16T10:44:31.405Z,230.63
2018-09-16T10:45:37.991Z,230.63
2018-09-16T10:46:44.619Z,225.00
2018-09-16T10:47:51.690Z,225.00
2018-09-16T10:48:57.811Z,225.00
2018-09-16T10:50:04.424Z,225.00
2018-09-16T10:51:11.032Z,230.63
2018-09-16T10:52:18.150Z,230.63
2018-09-16T10:53:24.749Z,230.63
2018-09-16T10:54:31.350Z,230.63
2018-09-16T10:55:37.972Z,230.63
2018-09-16T10:56:44.102Z,230.63
2018-09-16T10:57:50.712Z,236.25
2018-09-16T10:58:57.811Z,236.25
2018-09-16T11:00:03.940Z,230.63
2018-09-16T11:01:10.564Z,230.63
2018-09-16T11:02:17.302Z,230.63
2018-09-16T11:03:23.818Z,230.63
2018-09-16T11:04:30.441Z,236.25
2018-09-16T11:05:38.069Z,236.25
2018-09-16T11:06:43.709Z,236.25
2018-09-16T11:07:50.387Z,225.00
2018-09-16T11:08:56.951Z,236.25
2018-09-16T11:10:03.588Z,236.25
2018-09-16T11:11:10.216Z,230.63
2018-09-16T11:12:16.865Z,230.63
2018-09-16T11:13:23.495Z,230.63
2018-09-16T11:14:30.622Z,236.25
2018-09-16T11:15:36.769Z,230.63
2018-09-16T11:16:43.412Z,230.63
2018-09-16T11:17:50.061Z,230.63
2018-09-16T11:18:56.693Z,236.25
2018-09-16T11:20:03.352Z,247.50
2018-09-16T11:21:10.027Z,253.13
2018-09-16T11:22:17.031Z,258.75
2018-09-16T11:23:23.538Z,264.38
2018-09-16T11:24:30.261Z,270.00
2018-09-16T11:25:37.106Z,286.88
2018-09-16T11:26:43.993Z,360.00
2018-09-16T11:27:50.924Z,495.00
2018-09-16T11:28:58.348Z,528.75
2018-09-16T11:30:04.914Z,540.00
2018-09-16T11:31:11.852Z,551.25
2018-09-16T11:32:18.903Z,556.88
2018-09-16T11:33:25.958Z,562.50
2018-09-16T11:34:33.048Z,568.13
2018-09-16T11:35:40.256Z,568.13
2018-09-16T11:36:47.299Z,573.75
2018-09-16T11:37:54.481Z,573.75
2018-09-16T11:39:01.634Z,573.75
2018-09-16T11:40:08.824Z,579.38
2018-09-16T11:41:16.042Z,568.13
2018-09-16T11:42:23.285Z,568.13
2018-09-16T11:43:30.652Z,562.50
2018-09-16T11:44:37.793Z,562.50
2018-09-16T11:45:45.061Z,556.88
2018-09-16T11:46:52.835Z,556.88
2018-09-16T11:48:00.131Z,556.88
2018-09-16T11:49:07.422Z,562.50
2018-09-16T11:50:14.728Z,556.88
2018-09-16T11:51:22.064Z,568.13
2018-09-16T11:52:28.905Z,562.50
2018-09-16T11:53:36.768Z,568.13
2018-09-16T11:54:43.596Z,562.50
2018-09-16T11:55:50.956Z,556.88
2018-09-16T11:56:58.828Z,551.25
2018-09-16T11:58:05.717Z,562.50
2018-09-16T11:59:13.091Z,568.13
2018-09-16T12:00:20.505Z,540.00
2018-09-16T12:01:28.358Z,540.00
2018-09-16T12:02:35.772Z,562.50
2018-09-16T12:03:42.703Z,568.13
2018-09-16T12:04:50.122Z,573.75
2018-09-16T12:05:57.535Z,573.75
2018-09-16T12:07:04.980Z,568.13
2018-09-16T12:08:12.427Z,562.50
2018-09-16T12:09:19.860Z,568.13
2018-09-16T12:10:27.816Z,573.75
2018-09-16T12:11:34.811Z,573.75
2018-09-16T12:12:42.242Z,573.75
2018-09-16T12:13:49.723Z,579.38
2018-09-16T12:14:57.298Z,579.38
2018-09-16T12:16:05.348Z,590.63
2018-09-16T12:17:12.204Z,573.75
2018-09-16T12:18:19.707Z,590.63
2018-09-16T12:19:27.841Z,579.38
2018-09-16T12:20:34.732Z,579.38
2018-09-16T12:21:42.271Z,579.38
2018-09-16T12:22:49.801Z,562.50
2018-09-16T12:23:57.364Z,579.38
2018-09-16T12:25:05.388Z,585.00
2018-09-16T12:26:12.459Z,573.75
2018-09-16T12:27:20.017Z,585.00
2018-09-16T12:28:27.595Z,562.50
2018-09-16T12:29:35.144Z,573.75
2018-09-16T12:30:42.732Z,573.75
2018-09-16T12:31:50.277Z,573.75
2018-09-16T12:32:57.845Z,568.13
2018-09-16T12:34:05.925Z,534.38
2018-09-16T12:35:12.999Z,562.50
2018-09-16T12:36:20.556Z,573.75
2018-09-16T12:37:28.147Z,556.88
2018-09-16T12:38:36.219Z,517.50
2018-09-16T12:39:43.297Z,573.75
2018-09-16T12:40:50.866Z,562.50
2018-09-16T12:41:58.452Z,506.25
2018-09-16T12:43:06.036Z,579.38
2018-09-16T12:44:13.606Z,579.38
2018-09-16T12:45:21.706Z,579.38
2018-09-16T12:46:29.278Z,573.75
2018-09-16T12:47:36.850Z,573.75
2018-09-16T12:48:44.456Z,579.38
2018-09-16T12:49:52.026Z,579.38
2018-09-16T12:50:59.129Z,585.00
2018-09-16T12:52:07.282Z,579.38
2018-09-16T12:53:14.326Z,551.25
2018-09-16T12:54:21.921Z,534.38
2018-09-16T12:55:29.488Z,568.13
2018-09-16T12:56:37.551Z,585.00
2018-09-16T12:57:44.604Z,596.25
2018-09-16T12:58:52.672Z,590.63
2018-09-16T12:59:59.732Z,495.00
2018-09-16T13:01:07.245Z,596.25
2018-09-16T13:02:14.777Z,596.25
2018-09-16T13:03:22.317Z,596.25
2018-09-16T13:04:29.940Z,596.25
2018-09-16T13:05:37.361Z,601.88
2018-09-16T13:06:44.897Z,613.13
2018-09-16T13:07:52.411Z,635.63
2018-09-16T13:08:59.972Z,630.00
2018-09-16T13:10:07.495Z,635.63
2018-09-16T13:11:15.522Z,630.00
2018-09-16T13:12:23.063Z,613.13
2018-09-16T13:13:30.182Z,607.50
2018-09-16T13:14:37.679Z,613.13
2018-09-16T13:15:45.421Z,607.50
2018-09-16T13:16:53.289Z,596.25
2018-09-16T13:18:00.372Z,585.00
2018-09-16T13:19:08.468Z,573.75
2018-09-16T13:20:15.547Z,573.75
2018-09-16T13:21:23.650Z,568.13
2018-09-16T13:22:31.276Z,573.75
2018-09-16T13:23:38.389Z,573.75
2018-09-16T13:24:46.016Z,461.25
2018-09-16T13:25:54.124Z,573.75
2018-09-16T13:27:01.295Z,573.75
2018-09-16T13:28:08.898Z,568.13
2018-09-16T13:29:17.040Z,585.00
2018-09-16T13:30:24.700Z,585.00
2018-09-16T13:31:31.832Z,568.13
2018-09-16T13:32:39.463Z,562.50
2018-09-16T13:33:47.085Z,551.25
2018-09-16T13:34:55.721Z,562.50
2018-09-16T13:36:02.318Z,562.50
2018-09-16T13:37:10.404Z,568.13
2018-09-16T13:38:17.523Z,540.00
2018-09-16T13:39:25.109Z,562.50
2018-09-16T13:40:32.696Z,562.50
2018-09-16T13:41:40.273Z,545.63
2018-09-16T13:42:48.305Z,568.13
2018-09-16T13:43:55.422Z,551.25
2018-09-16T13:45:02.979Z,556.88
2018-09-16T13:46:10.524Z,540.00
2018-09-16T13:47:18.079Z,545.63
2018-09-16T13:48:25.645Z,540.00
2018-09-16T13:49:34.144Z,523.13
2018-09-16T13:50:40.765Z,517.50
2018-09-16T13:51:48.316Z,534.38
2018-09-16T13:52:56.373Z,540.00
2018-09-16T13:54:03.486Z,528.75
2018-09-16T13:55:11.039Z,511.88
2018-09-16T13:56:19.097Z,523.13
2018-09-16T13:57:26.638Z,517.50
2018-09-16T13:59:41.262Z,551.25
2018-09-16T14:00:49.315Z,551.25
2018-09-16T14:01:56.426Z,562.50
2018-09-16T14:03:03.949Z,568.13
2018-09-16T14:04:11.528Z,551.25
2018-09-16T14:05:19.099Z,556.88
2018-09-16T14:06:26.664Z,551.25
2018-09-16T14:07:34.242Z,568.13
2018-09-16T14:08:41.813Z,573.75
2018-09-16T14:09:49.385Z,579.38
2018-09-16T14:10:57.474Z,579.38
2018-09-16T14:12:04.536Z,545.63
2018-09-16T14:13:12.118Z,573.75